| time (UTC) | temp C | wind direction | speed KPH | gust KPH | rain 1hr cm | rain 24hr cm | rain mn cm | humidity % | barometer mb |
| 20260504081824 | 10 | 192 | 0.0 | 3.2 | 0.00 | 0.00 | 0.00 | 61 | 1004.6 |
| 20260504081323 | 10 | 192 | 0.0 | 3.2 | 0.00 | 0.00 | 0.00 | 61 | 1004.7 |
| 20260504080822 | 10 | 192 | 1.6 | 6.4 | 0.00 | 0.00 | 0.00 | 61 | 1004.6 |
| 20260504080317 | 10 | 190 | 1.6 | 4.8 | 0.00 | 0.00 | 0.00 | 61 | 1004.7 |
| 20260504070327 | 11 | 189 | 0.0 | 0.0 | 0.00 | 0.00 | 0.00 | 59 | 1005.1 |
| 20260504050326 | 14 | 259 | 0.0 | 1.6 | 0.00 | 0.00 | 0.00 | 43 | 1006.6 |
| 20260504045815 | 15 | 259 | 0.0 | 0.0 | 0.00 | 0.00 | 0.00 | 41 | 1006.5 |
| 20260504045313 | 15 | 259 | 0.0 | 0.0 | 0.00 | 0.00 | 0.00 | 41 | 1006.4 |
| 20260504044828 | 15 | 259 | 0.0 | 3.2 | 0.00 | 0.00 | 0.00 | 41 | 1006.6 |
| 20260504044326 | 15 | 259 | 0.0 | 6.4 | 0.00 | 0.00 | 0.00 | 41 | 1006.8 |
| 20260504043824 | 15 | 263 | 1.6 | 4.8 | 0.00 | 0.00 | 0.00 | 40 | 1006.6 |
| 20260504043323 | 15 | 263 | 0.0 | 0.0 | 0.00 | 0.00 | 0.00 | 39 | 1006.6 |
| 20260504042821 | 15 | 263 | 0.0 | 0.0 | 0.00 | 0.00 | 0.00 | 39 | 1006.6 |
| 20260504042319 | 15 | 263 | 0.0 | 3.2 | 0.00 | 0.00 | 0.00 | 39 | 1006.7 |
| 20260504041816 | 16 | 263 | 1.6 | 3.2 | 0.00 | 0.00 | 0.00 | 39 | 1006.7 |
| 20260504041314 | 16 | 277 | 0.0 | 0.0 | 0.00 | 0.00 | 0.00 | 38 | 1006.7 |
| 20260504040812 | 16 | 277 | 0.0 | 0.0 | 0.00 | 0.00 | 0.00 | 38 | 1006.7 |
| 20260504040330 | 16 | 277 | 0.0 | 0.0 | 0.00 | 0.00 | 0.00 | 37 | 1006.8 |
| 20260504035826 | 16 | 277 | 0.0 | 3.2 | 0.00 | 0.00 | 0.00 | 37 | 1006.8 |
| 20260504035323 | 16 | 277 | 0.0 | 3.2 | 0.00 | 0.00 | 0.00 | 37 | 1006.9 |
| 20260504034820 | 16 | 202 | 0.0 | 1.6 | 0.00 | 0.00 | 0.00 | 36 | 1006.9 |
| 20260504034338 | 16 | 202 | 0.0 | 1.6 | 0.00 | 0.00 | 0.00 | 36 | 1006.9 |
| 20260504033829 | 16 | 202 | 1.6 | 1.6 | 0.00 | 0.00 | 0.00 | 36 | 1007.0 |
| 20260504033327 | 17 | 202 | 0.0 | 0.0 | 0.00 | 0.00 | 0.00 | 36 | 1007.0 |
| 20260504032825 | 17 | 202 | 0.0 | 1.6 | 0.00 | 0.00 | 0.00 | 37 | 1007.1 |
| 20260504032321 | 17 | 202 | 0.0 | 1.6 | 0.00 | 0.00 | 0.00 | 36 | 1007.1 |
| 20260504031817 | 17 | 202 | 0.0 | 3.2 | 0.00 | 0.00 | 0.00 | 34 | 1007.1 |
| 20260504031315 | 17 | 202 | 0.0 | 3.2 | 0.00 | 0.00 | 0.00 | 34 | 1007.1 |
| 20260504030813 | 17 | 202 | 0.0 | 1.6 | 0.00 | 0.00 | 0.00 | 34 | 1007.1 |
| 20260504030331 | 17 | 202 | 0.0 | 1.6 | 0.00 | 0.00 | 0.00 | 34 | 1007.0 |
| 20260504025826 | 17 | 202 | 0.0 | 3.2 | 0.00 | 0.00 | 0.00 | 34 | 1006.9 |
| 20260504025323 | 17 | 202 | 1.6 | 3.2 | 0.00 | 0.00 | 0.00 | 33 | 1007.0 |
| 20260504024822 | 17 | 202 | 0.0 | 3.2 | 0.00 | 0.00 | 0.00 | 33 | 1006.9 |
| 20260504024318 | 18 | 202 | 1.6 | 8.0 | 0.00 | 0.00 | 0.00 | 33 | 1006.9 |
| 20260504023817 | 18 | 198 | 3.2 | 8.0 | 0.00 | 0.00 | 0.00 | 34 | 1006.8 |
| 20260504023316 | 18 | 311 | 0.0 | 1.6 | 0.00 | 0.00 | 0.00 | 32 | 1006.7 |
| 20260504022812 | 18 | 311 | 0.0 | 3.2 | 0.00 | 0.00 | 0.00 | 32 | 1006.7 |
| 20260504022329 | 18 | 311 | 0.0 | 3.2 | 0.00 | 0.00 | 0.00 | 32 | 1006.6 |
| 20260504021828 | 18 | 310 | 0.0 | 0.0 | 0.00 | 0.00 | 0.00 | 31 | 1006.6 |
| 20260504021326 | 19 | 310 | 0.0 | 0.0 | 0.00 | 0.00 | 0.00 | 31 | 1006.5 |
| 20260504020823 | 19 | 310 | 0.0 | 3.2 | 0.00 | 0.00 | 0.00 | 31 | 1006.5 |
| 20260504020321 | 19 | 310 | 0.0 | 3.2 | 0.00 | 0.00 | 0.00 | 31 | 1006.5 |
| 20260504015813 | 19 | 310 | 1.6 | 3.2 | 0.00 | 0.00 | 0.00 | 31 | 1006.5 |
| 20260504015331 | 19 | 307 | 0.0 | 3.2 | 0.00 | 0.00 | 0.00 | 31 | 1006.5 |
| 20260504014828 | 20 | 306 | 0.0 | 6.4 | 0.00 | 0.00 | 0.00 | 30 | 1006.4 |
| 20260504014325 | 20 | 306 | 1.6 | 8.0 | 0.00 | 0.00 | 0.00 | 30 | 1006.5 |
| 20260504013824 | 20 | 281 | 3.2 | 8.0 | 0.00 | 0.00 | 0.00 | 30 | 1006.3 |
| 20260504013321 | 20 | 319 | 1.6 | 3.2 | 0.00 | 0.00 | 0.00 | 30 | 1006.3 |
| 20260504012818 | 20 | 297 | 0.0 | 3.2 | 0.00 | 0.00 | 0.00 | 30 | 1006.3 |
| 20260504012315 | 20 | 316 | 0.0 | 3.2 | 0.00 | 0.00 | 0.00 | 30 | 1006.1 |
| 20260504011812 | 20 | 311 | 1.6 | 6.4 | 0.00 | 0.00 | 0.00 | 29 | 1006.1 |
| 20260504011330 | 20 | 321 | 1.6 | 6.4 | 0.00 | 0.00 | 0.00 | 29 | 1006.1 |
| 20260504010827 | 21 | 306 | 0.0 | 1.6 | 0.00 | 0.00 | 0.00 | 29 | 1006.1 |
| 20260504010326 | 21 | 306 | 0.0 | 3.2 | 0.00 | 0.00 | 0.00 | 29 | 1006.1 |
| 20260504005820 | 21 | 306 | 1.6 | 8.0 | 0.00 | 0.00 | 0.00 | 28 | 1006.1 |
| 20260504005318 | 21 | 305 | 3.2 | 8.0 | 0.00 | 0.00 | 0.00 | 28 | 1006.0 |
| 20260504004816 | 21 | 238 | 0.0 | 1.6 | 0.00 | 0.00 | 0.00 | 27 | 1006.0 |
| 20260504004313 | 21 | 238 | 0.0 | 3.2 | 0.00 | 0.00 | 0.00 | 27 | 1006.1 |
| 20260504003831 | 22 | 314 | 0.0 | 8.0 | 0.00 | 0.00 | 0.00 | 26 | 1005.9 |
| 20260504003329 | 22 | 291 | 3.2 | 12.9 | 0.00 | 0.00 | 0.00 | 26 | 1006.0 |
| 20260504002828 | 22 | 325 | 1.6 | 9.7 | 0.00 | 0.00 | 0.00 | 26 | 1005.9 |
| 20260504002328 | 22 | 329 | 4.8 | 12.9 | 0.00 | 0.00 | 0.00 | 25 | 1005.9 |
| 20260504001825 | 22 | 296 | 8.0 | 16.1 | 0.00 | 0.00 | 0.00 | 24 | 1006.0 |
| 20260504001323 | 22 | 293 | 6.4 | 16.1 | 0.00 | 0.00 | 0.00 | 25 | 1005.9 |
| 20260504000821 | 22 | 327 | 4.8 | 20.9 | 0.00 | 0.00 | 0.00 | 25 | 1005.9 |
| 20260504000320 | 22 | 327 | 8.0 | 20.9 | 0.00 | 0.00 | 0.00 | 24 | 1005.9 |
| 20260503235815 | 22 | 324 | 9.7 | 20.9 | 0.00 | 0.00 | 0.00 | 25 | 1005.8 |
| 20260503235314 | 22 | 166 | 6.4 | 16.1 | 0.00 | 0.00 | 0.00 | 25 | 1005.8 |
| 20260503234813 | 23 | 317 | 6.4 | 17.7 | 0.00 | 0.00 | 0.00 | 24 | 1005.8 |
| 20260503234313 | 23 | 306 | 8.0 | 25.7 | 0.00 | 0.00 | 0.00 | 24 | 1005.8 |
| 20260503233831 | 23 | 343 | 9.7 | 25.7 | 0.00 | 0.00 | 0.00 | 24 | 1005.8 |
| 20260503233329 | 23 | 313 | 3.2 | 20.9 | 0.00 | 0.00 | 0.00 | 25 | 1005.8 |
| 20260503232829 | 23 | 300 | 6.4 | 19.3 | 0.00 | 0.00 | 0.00 | 24 | 1005.7 |
| 20260503232327 | 23 | 294 | 9.7 | 19.3 | 0.00 | 0.00 | 0.00 | 23 | 1005.8 |
| 20260503231825 | 23 | 46 | 9.7 | 22.5 | 0.00 | 0.00 | 0.00 | 24 | 1005.8 |
| 20260503231325 | 23 | 351 | 9.7 | 22.5 | 0.00 | 0.00 | 0.00 | 25 | 1005.8 |
| 20260503230822 | 23 | 306 | 8.0 | 17.7 | 0.00 | 0.00 | 0.00 | 25 | 1005.7 |
| 20260503230320 | 23 | 315 | 4.8 | 14.5 | 0.00 | 0.00 | 0.00 | 25 | 1005.7 |
| 20260503225815 | 23 | 245 | 4.8 | 19.3 | 0.00 | 0.00 | 0.00 | 25 | 1005.8 |
| 20260503225313 | 23 | 316 | 6.4 | 22.5 | 0.00 | 0.00 | 0.00 | 25 | 1005.9 |
| 20260503224813 | 23 | 338 | 11.3 | 22.5 | 0.00 | 0.00 | 0.00 | 25 | 1005.9 |
| 20260503224312 | 23 | 355 | 8.0 | 22.5 | 0.00 | 0.00 | 0.00 | 27 | 1005.9 |
| 20260503223829 | 23 | 283 | 12.9 | 22.5 | 0.00 | 0.00 | 0.00 | 25 | 1005.9 |
| 20260503223327 | 23 | 343 | 11.3 | 22.5 | 0.00 | 0.00 | 0.00 | 25 | 1005.8 |
| 20260503222827 | 23 | 287 | 11.3 | 22.5 | 0.00 | 0.00 | 0.00 | 27 | 1005.7 |
| 20260503222323 | 23 | 302 | 4.8 | 19.3 | 0.00 | 0.00 | 0.00 | 27 | 1005.7 |
| 20260503221821 | 23 | 307 | 9.7 | 20.9 | 0.00 | 0.00 | 0.00 | 25 | 1005.7 |
| 20260503221320 | 23 | 297 | 9.7 | 20.9 | 0.00 | 0.00 | 0.00 | 26 | 1005.6 |
| 20260503220816 | 24 | 318 | 4.8 | 19.3 | 0.00 | 0.00 | 0.00 | 28 | 1005.5 |
| 20260503220314 | 24 | 239 | 6.4 | 20.9 | 0.00 | 0.00 | 0.00 | 26 | 1005.6 |
| 20260503215830 | 24 | 305 | 8.0 | 20.9 | 0.00 | 0.00 | 0.00 | 26 | 1005.6 |
| 20260503215328 | 24 | 337 | 4.8 | 16.1 | 0.00 | 0.00 | 0.00 | 26 | 1005.6 |
| 20260503214826 | 24 | 279 | 3.2 | 20.9 | 0.00 | 0.00 | 0.00 | 31 | 1005.7 |
| 20260503214325 | 24 | 188 | 6.4 | 20.9 | 0.00 | 0.00 | 0.00 | 27 | 1005.7 |
| 20260503213824 | 24 | 259 | 4.8 | 19.3 | 0.00 | 0.00 | 0.00 | 29 | 1005.6 |
| 20260503213323 | 24 | 326 | 8.0 | 19.3 | 0.00 | 0.00 | 0.00 | 32 | 1005.6 |
| 20260503212821 | 23 | 167 | 4.8 | 12.9 | 0.00 | 0.00 | 0.00 | 37 | 1005.7 |
| 20260503212318 | 23 | 274 | 6.4 | 12.9 | 0.00 | 0.00 | 0.00 | 38 | 1005.7 |
| 20260503211816 | 23 | 144 | 4.8 | 14.5 | 0.00 | 0.00 | 0.00 | 39 | 1005.8 |
| 20260503211314 | 23 | 348 | 6.4 | 16.1 | 0.00 | 0.00 | 0.00 | 38 | 1005.8 |
| 20260503210814 | 23 | 213 | 8.0 | 16.1 | 0.00 | 0.00 | 0.00 | 39 | 1005.9 |
| 20260503210326 | 23 | 194 | 8.0 | 19.3 | 0.00 | 0.00 | 0.00 | 38 | 1006.0 |
| 20260503205822 | 23 | 281 | 9.7 | 19.3 | 0.00 | 0.00 | 0.00 | 36 | 1006.1 |
| 20260503205321 | 24 | 176 | 3.2 | 12.9 | 0.00 | 0.00 | 0.00 | 28 | 1006.2 |
| 20260503204818 | 23 | 223 | 3.2 | 29.0 | 0.00 | 0.00 | 0.00 | 29 | 1006.1 |
| 20260503204317 | 23 | 319 | 9.7 | 29.0 | 0.00 | 0.00 | 0.00 | 27 | 1006.1 |
| 20260503203816 | 24 | 221 | 9.7 | 24.1 | 0.00 | 0.00 | 0.00 | 27 | 1006.1 |
| 20260503203313 | 23 | 283 | 9.7 | 17.7 | 0.00 | 0.00 | 0.00 | 27 | 1006.2 |
| 20260503202812 | 23 | 326 | 8.0 | 20.9 | 0.00 | 0.00 | 0.00 | 29 | 1006.3 |
| 20260503202312 | 23 | 355 | 9.7 | 22.5 | 0.00 | 0.00 | 0.00 | 27 | 1006.3 |
| 20260503201830 | 24 | 312 | 9.7 | 22.5 | 0.00 | 0.00 | 0.00 | 28 | 1006.4 |
| 20260503201328 | 23 | 350 | 8.0 | 20.9 | 0.00 | 0.00 | 0.00 | 30 | 1006.3 |
| 20260503200824 | 23 | 298 | 6.4 | 19.3 | 0.00 | 0.00 | 0.00 | 30 | 1006.3 |
| 20260503200320 | 23 | 294 | 9.7 | 17.7 | 0.00 | 0.00 | 0.00 | 30 | 1006.1 |
| 20260503195815 | 23 | 355 | 8.0 | 20.9 | 0.00 | 0.00 | 0.00 | 33 | 1006.4 |
| 20260503195312 | 23 | 290 | 8.0 | 20.9 | 0.00 | 0.00 | 0.00 | 33 | 1006.2 |
| 20260503194830 | 23 | 284 | 9.7 | 16.1 | 0.00 | 0.00 | 0.00 | 33 | 1006.3 |
| 20260503194327 | 23 | 161 | 4.8 | 16.1 | 0.00 | 0.00 | 0.00 | 35 | 1006.3 |
| 20260503193825 | 23 | 207 | 3.2 | 12.9 | 0.00 | 0.00 | 0.00 | 36 | 1006.4 |
| 20260503193324 | 23 | 215 | 4.8 | 17.7 | 0.00 | 0.00 | 0.00 | 35 | 1006.5 |
| 20260503192822 | 23 | 221 | 9.7 | 17.7 | 0.00 | 0.00 | 0.00 | 35 | 1006.6 |
| 20260503192321 | 22 | 201 | 4.8 | 17.7 | 0.00 | 0.00 | 0.00 | 36 | 1006.7 |
| 20260503191820 | 22 | 199 | 4.8 | 17.7 | 0.00 | 0.00 | 0.00 | 38 | 1006.8 |
| 20260503191318 | 22 | 355 | 8.0 | 17.7 | 0.00 | 0.00 | 0.00 | 36 | 1006.9 |
| 20260503190814 | 22 | 351 | 4.8 | 25.7 | 0.00 | 0.00 | 0.00 | 37 | 1007.0 |
| 20260503190312 | 22 | 5 | 4.8 | 25.7 | 0.00 | 0.00 | 0.00 | 37 | 1007.0 |
| 20260503185825 | 22 | 306 | 6.4 | 17.7 | 0.00 | 0.00 | 0.00 | 39 | 1007.0 |
| 20260503185324 | 22 | 209 | 11.3 | 22.5 | 0.00 | 0.00 | 0.00 | 36 | 1007.1 |
| 20260503184822 | 22 | 308 | 8.0 | 22.5 | 0.00 | 0.00 | 0.00 | 38 | 1007.3 |
| 20260503184321 | 22 | 200 | 8.0 | 16.1 | 0.00 | 0.00 | 0.00 | 38 | 1007.2 |
| 20260503183820 | 22 | 233 | 4.8 | 19.3 | 0.00 | 0.00 | 0.00 | 38 | 1007.3 |
| 20260503183318 | 21 | 166 | 9.7 | 19.3 | 0.00 | 0.00 | 0.00 | 38 | 1007.3 |
| 20260503182817 | 21 | 355 | 6.4 | 16.1 | 0.00 | 0.00 | 0.00 | 38 | 1007.4 |
| 20260503182316 | 21 | 202 | 3.2 | 16.1 | 0.00 | 0.00 | 0.00 | 38 | 1007.5 |
| 20260503181814 | 21 | 344 | 9.7 | 24.1 | 0.00 | 0.00 | 0.00 | 38 | 1007.4 |
| 20260503181313 | 21 | 333 | 8.0 | 24.1 | 0.00 | 0.00 | 0.00 | 38 | 1007.6 |
| 20260503180811 | 21 | 214 | 4.8 | 19.3 | 0.00 | 0.00 | 0.00 | 38 | 1007.7 |
| 20260503180329 | 21 | 306 | 4.8 | 12.9 | 0.00 | 0.00 | 0.00 | 40 | 1007.8 |
| 20260503175823 | 21 | 225 | 4.8 | 24.1 | 0.00 | 0.00 | 0.00 | 39 | 1007.9 |
| 20260503175318 | 20 | 300 | 4.8 | 24.1 | 0.00 | 0.00 | 0.00 | 42 | 1007.8 |
| 20260503174815 | 20 | 305 | 9.7 | 16.1 | 0.00 | 0.00 | 0.00 | 41 | 1008.0 |
| 20260503174314 | 20 | 180 | 6.4 | 14.5 | 0.00 | 0.00 | 0.00 | 39 | 1008.1 |
| 20260503173830 | 20 | 268 | 6.4 | 20.9 | 0.00 | 0.00 | 0.00 | 41 | 1008.2 |
| 20260503173327 | 19 | 184 | 8.0 | 20.9 | 0.00 | 0.00 | 0.00 | 40 | 1008.3 |
| 20260503172824 | 19 | 355 | 4.8 | 17.7 | 0.00 | 0.00 | 0.00 | 41 | 1008.3 |
| 20260503172322 | 19 | 305 | 6.4 | 17.7 | 0.00 | 0.00 | 0.00 | 40 | 1008.3 |
| 20260503171820 | 19 | 317 | 8.0 | 17.7 | 0.00 | 0.00 | 0.00 | 42 | 1008.4 |
| 20260503171318 | 18 | 268 | 11.3 | 22.5 | 0.00 | 0.00 | 0.00 | 41 | 1008.3 |
| 20260503170815 | 18 | 195 | 8.0 | 17.7 | 0.00 | 0.00 | 0.00 | 42 | 1008.4 |
| 20260503170311 | 18 | 294 | 8.0 | 19.3 | 0.00 | 0.00 | 0.00 | 41 | 1008.4 |
| 20260503150813 | 15 | 227 | 8.0 | 14.5 | 0.00 | 0.00 | 0.00 | 47 | 1010.0 |
| 20260503150330 | 15 | 247 | 4.8 | 16.1 | 0.00 | 0.00 | 0.00 | 49 | 1010.0 |
| 20260503131320 | 11 | 185 | 8.0 | 16.1 | 0.00 | 0.00 | 0.00 | 55 | 1011.3 |
| 20260503130812 | 10 | 207 | 8.0 | 14.5 | 0.00 | 0.00 | 0.00 | 55 | 1011.5 |
| 20260503130329 | 10 | 219 | 6.4 | 11.3 | 0.00 | 0.00 | 0.00 | 55 | 1011.8 |
| 20260503110811 | 10 | 215 | 9.7 | 16.1 | 0.00 | 0.00 | 0.00 | 56 | 1012.0 |
| 20260503110328 | 10 | 200 | 8.0 | 12.9 | 0.00 | 0.00 | 0.00 | 57 | 1012.1 |